createdAt,value
2017-12-10T00:00:39.196Z,1.58
2017-12-10T00:03:06.679Z,1.63
2017-12-10T00:05:34.178Z,1.62
2017-12-10T00:08:01.706Z,1.65
2017-12-10T00:10:29.207Z,1.60
2017-12-10T00:12:56.686Z,1.62
2017-12-10T00:15:24.219Z,1.65
2017-12-10T00:17:51.715Z,1.64
2017-12-10T00:20:19.219Z,1.63
2017-12-10T00:22:46.754Z,1.62
2017-12-10T00:25:14.271Z,1.59
2017-12-10T00:27:41.832Z,1.51
2017-12-10T00:30:09.498Z,1.48
2017-12-10T00:32:36.992Z,1.46
2017-12-10T00:35:04.483Z,1.46
2017-12-10T00:37:32.012Z,1.44
2017-12-10T00:39:59.495Z,1.39
2017-12-10T00:42:26.977Z,1.31
2017-12-10T00:44:54.662Z,1.30
2017-12-10T00:47:22.147Z,1.31
2017-12-10T00:49:49.666Z,1.22
2017-12-10T00:52:17.316Z,1.12
2017-12-10T00:54:44.875Z,1.08
2017-12-10T00:57:12.355Z,1.09
2017-12-10T00:59:39.863Z,1.06
2017-12-10T01:02:07.451Z,1.06
2017-12-10T01:04:34.979Z,1.03
2017-12-10T01:07:02.509Z,1.05
2017-12-10T01:09:30.022Z,1.03
2017-12-10T01:11:57.548Z,1.08
2017-12-10T01:14:25.040Z,1.12
2017-12-10T01:16:52.536Z,1.15
2017-12-10T01:19:20.072Z,1.19
2017-12-10T01:21:47.567Z,1.21
2017-12-10T01:24:15.042Z,1.22
2017-12-10T01:26:42.559Z,1.23
2017-12-10T01:29:10.062Z,1.27
2017-12-10T01:31:37.558Z,1.26
2017-12-10T01:34:05.085Z,1.25
2017-12-10T01:36:32.573Z,1.22
2017-12-10T01:39:00.149Z,1.21
2017-12-10T01:41:27.671Z,1.21
2017-12-10T01:43:55.146Z,1.20
2017-12-10T01:46:22.651Z,1.15
2017-12-10T01:48:50.164Z,1.13
2017-12-10T01:51:17.716Z,1.11
2017-12-10T01:53:45.201Z,1.14
2017-12-10T01:56:12.743Z,1.09
2017-12-10T01:58:40.224Z,1.08
2017-12-10T02:01:07.703Z,1.05
2017-12-10T02:03:35.232Z,1.04
2017-12-10T02:06:02.726Z,1.01
2017-12-10T02:08:30.203Z,1.01
2017-12-10T02:10:57.728Z,0.96
2017-12-10T02:13:25.221Z,0.96
2017-12-10T02:15:52.710Z,0.93
2017-12-10T02:18:20.214Z,0.97
2017-12-10T02:20:47.700Z,0.95
2017-12-10T02:23:15.183Z,0.97
2017-12-10T02:25:42.708Z,1.01
2017-12-10T02:28:10.195Z,0.98
2017-12-10T02:30:37.695Z,0.94
2017-12-10T02:33:05.220Z,0.94
2017-12-10T02:35:32.764Z,0.92
2017-12-10T02:38:00.324Z,0.93
2017-12-10T02:40:27.884Z,0.92
2017-12-10T02:42:55.359Z,0.96
2017-12-10T02:45:22.907Z,0.96
2017-12-10T02:47:50.386Z,0.93
2017-12-10T02:50:17.867Z,0.90
2017-12-10T02:52:45.401Z,0.87
2017-12-10T02:55:12.874Z,0.81
2017-12-10T02:57:40.382Z,0.79
2017-12-10T03:00:07.891Z,0.78
2017-12-10T03:02:35.370Z,0.74
2017-12-10T03:05:02.849Z,0.70
2017-12-10T03:07:30.368Z,0.68
2017-12-10T03:09:57.844Z,0.66
2017-12-10T03:12:25.364Z,0.64
2017-12-10T03:14:52.887Z,0.62
2017-12-10T03:17:20.369Z,0.58
2017-12-10T03:19:47.847Z,0.55
2017-12-10T03:22:15.364Z,0.55
2017-12-10T03:24:42.924Z,0.54
2017-12-10T03:27:10.399Z,0.54
2017-12-10T03:29:37.942Z,0.56
2017-12-10T03:32:05.418Z,0.58
2017-12-10T03:34:32.896Z,0.60
2017-12-10T03:37:00.423Z,0.57
2017-12-10T03:39:27.908Z,0.57
2017-12-10T03:41:55.374Z,0.57
2017-12-10T03:44:22.901Z,0.56
2017-12-10T03:46:50.387Z,0.55
2017-12-10T03:49:17.854Z,0.54
2017-12-10T03:51:45.386Z,0.54
2017-12-10T03:54:12.862Z,0.53
2017-12-10T03:56:40.329Z,0.53
2017-12-10T03:59:07.863Z,0.52
2017-12-10T04:01:35.335Z,0.47
2017-12-10T04:04:02.820Z,0.46
2017-12-10T04:06:30.354Z,0.43
2017-12-10T04:08:57.821Z,0.44
2017-12-10T04:11:25.333Z,0.42
2017-12-10T04:13:52.880Z,0.37
2017-12-10T04:16:20.357Z,0.34
2017-12-10T04:18:47.838Z,0.32
2017-12-10T04:21:15.347Z,0.31
2017-12-10T04:23:42.813Z,0.27
2017-12-10T04:26:10.276Z,0.23
2017-12-10T04:28:37.776Z,0.21
2017-12-10T04:31:05.238Z,0.18
2017-12-10T04:33:32.711Z,0.22
2017-12-10T04:36:00.332Z,0.26
2017-12-10T04:38:27.807Z,0.34
2017-12-10T04:40:55.274Z,0.41
2017-12-10T04:43:22.785Z,0.43
2017-12-10T04:45:50.257Z,0.46
2017-12-10T04:48:17.728Z,0.45
2017-12-10T04:50:45.273Z,0.46
2017-12-10T04:53:12.811Z,0.46
2017-12-10T04:55:40.279Z,0.45
2017-12-10T04:58:07.780Z,0.45
2017-12-10T05:00:35.395Z,0.43
2017-12-10T05:03:02.871Z,0.38
2017-12-10T05:05:30.410Z,0.36
2017-12-10T05:07:57.902Z,0.34
2017-12-10T05:10:25.379Z,0.35
2017-12-10T05:12:53.087Z,0.37
2017-12-10T05:15:20.643Z,0.36
2017-12-10T05:17:48.120Z,0.33
2017-12-10T05:20:15.629Z,0.30
2017-12-10T05:22:43.098Z,0.30
2017-12-10T05:25:10.668Z,0.28
2017-12-10T05:27:38.176Z,0.29
2017-12-10T05:30:05.653Z,0.33
2017-12-10T05:32:33.137Z,0.35
2017-12-10T05:35:00.651Z,0.36
2017-12-10T05:37:28.159Z,0.26
2017-12-10T05:39:55.632Z,0.20
2017-12-10T05:42:23.203Z,0.16
2017-12-10T05:44:50.674Z,0.14
2017-12-10T05:47:18.144Z,0.12
2017-12-10T05:49:45.658Z,0.09
2017-12-10T05:52:13.134Z,0.08
2017-12-10T05:54:40.610Z,0.09
2017-12-10T05:57:08.122Z,0.13
2017-12-10T05:59:35.682Z,0.14
2017-12-10T06:02:03.151Z,0.17
2017-12-10T06:04:30.674Z,0.15
2017-12-10T06:06:58.162Z,0.18
2017-12-10T06:09:25.632Z,0.21
2017-12-10T06:11:53.143Z,0.19
2017-12-10T06:14:20.615Z,0.19
2017-12-10T06:16:48.091Z,0.20
2017-12-10T06:19:15.608Z,0.18
2017-12-10T06:21:43.111Z,0.17
2017-12-10T06:24:10.585Z,0.20
2017-12-10T06:26:38.107Z,0.17
2017-12-10T06:29:05.579Z,0.11
2017-12-10T06:31:33.052Z,0.08
2017-12-10T06:34:00.552Z,0.05
2017-12-10T06:36:28.034Z,0.02
2017-12-10T06:38:55.616Z,-0.02
2017-12-10T06:41:23.108Z,-0.01
2017-12-10T06:43:50.649Z,-0.07
2017-12-10T06:46:18.128Z,-0.07
2017-12-10T06:48:45.602Z,-0.04
2017-12-10T06:51:13.361Z,-0.05
2017-12-10T06:53:40.815Z,-0.07
2017-12-10T06:56:08.324Z,-0.04
2017-12-10T06:58:35.830Z,-0.05
2017-12-10T07:01:03.362Z,-0.03
2017-12-10T07:03:30.838Z,-0.01
2017-12-10T07:05:58.357Z,0.02
2017-12-10T07:08:25.839Z,0.01
2017-12-10T07:10:53.310Z,0.04
2017-12-10T07:13:20.817Z,0.09
2017-12-10T07:15:48.393Z,0.08
2017-12-10T07:18:15.869Z,0.09
2017-12-10T07:20:43.410Z,0.10
2017-12-10T07:23:10.906Z,0.08
2017-12-10T07:25:38.414Z,0.08
2017-12-10T07:28:05.938Z,0.10
2017-12-10T07:30:33.413Z,0.14
2017-12-10T07:33:00.882Z,0.14
2017-12-10T07:35:28.457Z,0.15
2017-12-10T07:37:55.949Z,0.17
2017-12-10T07:40:23.424Z,0.17
2017-12-10T07:42:50.927Z,0.17
2017-12-10T07:45:18.398Z,0.14
2017-12-10T07:47:45.870Z,0.13
2017-12-10T07:50:13.431Z,0.13
2017-12-10T07:52:40.904Z,0.17
2017-12-10T07:55:08.386Z,0.20
2017-12-10T07:57:35.996Z,0.23
2017-12-10T08:00:03.511Z,0.28
2017-12-10T08:02:30.975Z,0.28
2017-12-10T08:04:58.494Z,0.29
2017-12-10T08:07:25.963Z,0.28
2017-12-10T08:09:53.439Z,0.31
2017-12-10T08:12:21.014Z,0.28
2017-12-10T08:14:48.486Z,0.32
2017-12-10T08:17:16.047Z,0.27
2017-12-10T08:19:43.594Z,0.25
2017-12-10T08:22:11.059Z,0.34
2017-12-10T08:24:38.534Z,0.36
2017-12-10T08:27:06.047Z,0.41
2017-12-10T08:29:33.520Z,0.44
2017-12-10T08:32:01.000Z,0.44
2017-12-10T08:34:28.548Z,0.44
2017-12-10T08:36:56.077Z,0.44
2017-12-10T08:39:23.555Z,0.48
2017-12-10T08:41:51.087Z,0.42
2017-12-10T08:44:18.558Z,0.43
2017-12-10T08:46:46.029Z,0.46
2017-12-10T08:49:13.534Z,0.53
2017-12-10T08:51:41.003Z,0.51
2017-12-10T08:54:08.497Z,0.56
2017-12-10T08:56:36.011Z,0.53
2017-12-10T08:59:03.511Z,0.79
2017-12-10T09:01:30.984Z,0.93
2017-12-10T09:03:58.647Z,1.06
2017-12-10T09:06:26.127Z,1.13
2017-12-10T09:08:53.606Z,1.10
2017-12-10T09:11:21.125Z,1.06
2017-12-10T09:13:48.599Z,1.03
2017-12-10T09:16:16.201Z,1.19
2017-12-10T09:18:43.730Z,1.24
2017-12-10T09:21:11.248Z,1.36
2017-12-10T09:23:38.715Z,1.90
2017-12-10T09:26:06.204Z,1.69
2017-12-10T09:28:33.720Z,1.43
2017-12-10T09:31:01.240Z,1.48
2017-12-10T09:33:28.710Z,1.46
2017-12-10T09:35:56.219Z,1.40
2017-12-10T09:38:23.738Z,1.34
2017-12-10T09:40:51.222Z,1.29
2017-12-10T09:43:18.699Z,1.16
2017-12-10T09:45:46.213Z,1.08
2017-12-10T09:48:13.688Z,1.12
2017-12-10T09:50:41.163Z,1.06
2017-12-10T09:53:08.670Z,1.00
2017-12-10T09:55:36.147Z,0.95
2017-12-10T09:58:03.716Z,0.96
2017-12-10T10:00:31.271Z,0.92
2017-12-10T10:02:58.839Z,0.90
2017-12-10T10:05:26.328Z,0.90
2017-12-10T10:07:53.838Z,0.95
2017-12-10T10:10:21.338Z,0.91
2017-12-10T10:12:48.816Z,0.82
2017-12-10T10:15:16.351Z,0.73
2017-12-10T10:17:43.827Z,0.73
2017-12-10T10:20:11.313Z,0.74
2017-12-10T10:22:38.832Z,0.72
2017-12-10T10:25:06.319Z,0.75
2017-12-10T10:27:33.795Z,0.82
2017-12-10T10:30:01.374Z,0.93
2017-12-10T10:32:28.852Z,0.99
2017-12-10T10:34:56.325Z,1.02
2017-12-10T10:37:23.833Z,1.00
2017-12-10T10:39:51.303Z,0.88
2017-12-10T10:42:18.827Z,1.04
2017-12-10T10:44:46.345Z,1.12
2017-12-10T10:47:13.824Z,1.11
2017-12-10T10:49:41.304Z,1.02
2017-12-10T10:52:08.828Z,1.01
2017-12-10T10:54:36.402Z,1.04
2017-12-10T10:57:03.883Z,1.10
2017-12-10T10:59:31.400Z,1.02
2017-12-10T11:01:58.941Z,1.03
2017-12-10T11:04:26.432Z,1.05
2017-12-10T11:06:53.958Z,1.08
2017-12-10T11:09:21.505Z,1.18
2017-12-10T11:11:48.978Z,1.18
2017-12-10T11:14:16.496Z,1.12
2017-12-10T11:16:43.962Z,1.00
2017-12-10T11:19:11.442Z,0.97
2017-12-10T11:21:38.947Z,1.02
2017-12-10T11:24:06.446Z,1.04
2017-12-10T11:26:34.014Z,1.02
2017-12-10T11:29:01.594Z,1.09
2017-12-10T11:31:29.137Z,1.06
2017-12-10T11:33:56.626Z,0.95
2017-12-10T11:36:24.127Z,1.00
2017-12-10T11:38:51.608Z,0.93
2017-12-10T11:41:19.082Z,0.94
2017-12-10T11:43:46.595Z,0.86
2017-12-10T11:46:14.071Z,0.77
2017-12-10T11:48:41.568Z,0.70
2017-12-10T11:51:09.355Z,0.71
2017-12-10T11:53:36.862Z,0.70
2017-12-10T11:56:04.419Z,0.74
2017-12-10T11:58:31.900Z,0.78
2017-12-10T12:00:59.394Z,0.91
2017-12-10T12:03:26.904Z,1.01
2017-12-10T12:05:54.368Z,1.13
2017-12-10T12:08:21.908Z,1.14
2017-12-10T12:10:49.567Z,1.22
2017-12-10T12:13:17.052Z,1.25
2017-12-10T12:15:44.522Z,1.19
2017-12-10T12:18:12.064Z,1.17
2017-12-10T12:20:39.536Z,1.27
2017-12-10T12:23:07.007Z,1.29
2017-12-10T12:25:34.616Z,1.21
2017-12-10T12:28:02.091Z,1.19
2017-12-10T12:30:29.569Z,1.16
2017-12-10T12:32:57.114Z,1.17
2017-12-10T12:35:24.595Z,1.08
2017-12-10T12:37:52.077Z,0.94
2017-12-10T12:40:19.590Z,0.98
2017-12-10T12:42:47.068Z,0.93
2017-12-10T12:45:14.567Z,0.94
2017-12-10T12:47:42.140Z,0.82
2017-12-10T12:50:09.707Z,0.88
2017-12-10T12:52:37.282Z,0.81
2017-12-10T12:55:04.796Z,0.69
2017-12-10T12:57:32.271Z,0.64
2017-12-10T12:59:59.745Z,0.66
2017-12-10T13:02:27.248Z,0.67
2017-12-10T13:04:54.719Z,0.68
2017-12-10T13:07:22.183Z,0.67
2017-12-10T13:09:49.753Z,0.69
2017-12-10T13:12:17.223Z,0.72
2017-12-10T13:14:44.785Z,0.71
2017-12-10T13:17:12.362Z,0.67
2017-12-10T13:19:39.899Z,0.64
2017-12-10T13:22:07.367Z,0.58
2017-12-10T13:24:34.901Z,0.52
2017-12-10T13:27:02.482Z,0.57
2017-12-10T13:29:29.959Z,0.59
2017-12-10T13:31:57.498Z,0.62
2017-12-10T13:34:24.981Z,0.63
2017-12-10T13:36:52.447Z,0.70
2017-12-10T13:39:19.986Z,0.61
2017-12-10T13:41:47.471Z,0.65
2017-12-10T13:44:14.953Z,0.59
2017-12-10T13:46:42.537Z,0.59
2017-12-10T13:49:10.011Z,0.56
2017-12-10T13:51:37.488Z,0.57
2017-12-10T13:54:04.999Z,0.58
2017-12-10T13:56:32.475Z,0.63
2017-12-10T13:58:59.949Z,0.61
2017-12-10T14:01:27.697Z,0.49
2017-12-10T14:03:55.173Z,0.45
2017-12-10T14:06:22.643Z,0.47
2017-12-10T14:08:50.171Z,0.43
2017-12-10T14:11:17.656Z,0.45
2017-12-10T14:13:45.139Z,0.43
2017-12-10T14:16:12.741Z,0.45
2017-12-10T14:18:40.222Z,0.46
2017-12-10T14:21:07.759Z,0.39
2017-12-10T14:23:35.289Z,0.45
2017-12-10T14:26:02.764Z,0.48
2017-12-10T14:28:30.238Z,0.44
2017-12-10T14:30:57.747Z,0.42
2017-12-10T14:33:25.224Z,0.37
2017-12-10T14:35:52.706Z,0.33
2017-12-10T14:38:20.235Z,0.31
2017-12-10T14:40:47.736Z,0.33
2017-12-10T14:43:15.228Z,0.33
2017-12-10T14:45:42.730Z,0.34
2017-12-10T14:48:10.210Z,0.37
2017-12-10T14:50:37.688Z,0.41
2017-12-10T14:53:05.204Z,0.38
2017-12-10T14:55:32.688Z,0.37
2017-12-10T14:58:00.176Z,0.40
2017-12-10T15:00:27.701Z,0.34
2017-12-10T15:02:55.175Z,0.35
2017-12-10T15:05:22.767Z,0.40
2017-12-10T15:07:50.283Z,0.43
2017-12-10T15:10:17.759Z,0.41
2017-12-10T15:12:45.234Z,0.37
2017-12-10T15:15:12.763Z,0.36
2017-12-10T15:17:40.241Z,0.37
2017-12-10T15:20:07.843Z,0.36
2017-12-10T15:22:35.412Z,0.35
2017-12-10T15:25:02.891Z,0.31
2017-12-10T15:27:30.421Z,0.32
2017-12-10T15:29:57.940Z,0.22
2017-12-10T15:32:25.412Z,0.24
2017-12-10T15:34:52.902Z,0.27
2017-12-10T15:37:20.443Z,0.33
2017-12-10T15:39:48.019Z,0.38
2017-12-10T15:42:15.492Z,0.33
2017-12-10T15:44:42.993Z,0.31
2017-12-10T15:47:10.559Z,0.28
2017-12-10T15:49:38.039Z,0.32
2017-12-10T15:52:05.632Z,0.28
2017-12-10T15:54:33.131Z,0.33
2017-12-10T15:57:00.614Z,0.25
2017-12-10T15:59:28.129Z,0.27
2017-12-10T16:01:55.595Z,0.25
2017-12-10T16:04:23.073Z,0.23
2017-12-10T16:06:50.577Z,0.22
2017-12-10T16:09:18.113Z,0.27
2017-12-10T16:11:45.695Z,0.30
2017-12-10T16:14:13.176Z,0.26
2017-12-10T16:16:40.651Z,0.27
2017-12-10T16:19:08.172Z,0.25
2017-12-10T16:21:35.657Z,0.29
2017-12-10T16:24:03.188Z,0.32
2017-12-10T16:26:30.704Z,0.32
2017-12-10T16:28:58.179Z,0.35
2017-12-10T16:31:25.653Z,0.40
2017-12-10T16:33:53.207Z,0.41
2017-12-10T16:36:20.691Z,0.37
2017-12-10T16:38:48.158Z,0.37
2017-12-10T16:41:15.662Z,0.41
2017-12-10T16:43:43.137Z,0.45
2017-12-10T16:46:10.623Z,0.43
2017-12-10T16:48:38.145Z,0.41
2017-12-10T16:51:05.701Z,0.31
2017-12-10T16:53:33.179Z,0.01
2017-12-10T16:56:00.691Z,-0.12
2017-12-10T16:58:28.165Z,-0.19
2017-12-10T17:00:55.678Z,-0.49
2017-12-10T17:03:23.155Z,-0.65
2017-12-10T17:05:50.625Z,-0.72
2017-12-10T17:08:18.123Z,-0.83
2017-12-10T17:10:45.646Z,-0.85
2017-12-10T17:13:13.140Z,-0.84
2017-12-10T17:15:40.689Z,-0.89
2017-12-10T17:18:08.223Z,-0.92
2017-12-10T17:20:35.700Z,-0.90
2017-12-10T17:23:03.180Z,-0.90
2017-12-10T17:25:30.704Z,-1.17
2017-12-10T17:27:58.196Z,-1.22
2017-12-10T17:30:25.670Z,-1.30
2017-12-10T17:32:53.291Z,-1.25
2017-12-10T17:35:20.771Z,-1.33
2017-12-10T17:37:49.101Z,-1.24
2017-12-10T17:40:16.620Z,-1.18
2017-12-10T17:42:44.090Z,-1.20
2017-12-10T17:45:11.741Z,-1.17
2017-12-10T17:47:39.237Z,-1.18
2017-12-10T17:50:06.717Z,-1.20
2017-12-10T17:52:34.282Z,-1.16
2017-12-10T17:55:01.798Z,-1.23
2017-12-10T17:57:29.276Z,-1.22
2017-12-10T17:59:56.762Z,-1.13
2017-12-10T18:02:24.283Z,-1.02
2017-12-10T18:04:51.808Z,-0.88
2017-12-10T18:07:19.347Z,-0.92
2017-12-10T18:09:46.901Z,-1.07
2017-12-10T18:12:14.386Z,-1.25
2017-12-10T18:14:41.862Z,-1.34
2017-12-10T18:17:09.560Z,-1.39
2017-12-10T18:19:37.032Z,-1.36
2017-12-10T18:22:04.545Z,-1.32
2017-12-10T18:24:32.022Z,-1.21
2017-12-10T18:26:59.499Z,-1.20
2017-12-10T18:29:27.052Z,-1.13
2017-12-10T18:31:54.575Z,-1.09
2017-12-10T18:34:22.068Z,-1.09
2017-12-10T18:36:49.621Z,-1.08
2017-12-10T18:39:17.194Z,-1.04
2017-12-10T18:41:44.670Z,-1.09
2017-12-10T18:44:12.188Z,-1.11
2017-12-10T18:46:39.787Z,-1.08
2017-12-10T18:49:07.320Z,-1.03
2017-12-10T18:51:34.843Z,-1.03
2017-12-10T18:54:02.318Z,-1.03
2017-12-10T18:56:29.800Z,-0.98
2017-12-10T18:58:57.360Z,-0.87
2017-12-10T19:01:24.847Z,-0.94
2017-12-10T19:03:52.318Z,-0.92
2017-12-10T19:06:19.931Z,-0.89
2017-12-10T19:08:47.404Z,-0.87
2017-12-10T19:11:14.906Z,-0.87
2017-12-10T19:13:42.528Z,-0.86
2017-12-10T19:16:10.002Z,-0.94
2017-12-10T19:18:37.528Z,-0.97
2017-12-10T19:21:05.079Z,-0.86
2017-12-10T19:23:32.619Z,-0.85
2017-12-10T19:26:00.101Z,-0.84
2017-12-10T19:28:27.599Z,-0.83
2017-12-10T19:30:55.079Z,-0.81
2017-12-10T19:33:22.596Z,-0.78
2017-12-10T19:35:50.084Z,-0.83
2017-12-10T19:38:17.563Z,-0.81
2017-12-10T19:40:45.087Z,-0.77
2017-12-10T19:43:12.567Z,-0.73
2017-12-10T19:45:40.043Z,-0.70
2017-12-10T19:48:07.616Z,-0.63
2017-12-10T19:50:35.102Z,-0.58
2017-12-10T19:53:02.650Z,-0.59
2017-12-10T19:55:30.222Z,-0.64
2017-12-10T19:57:57.735Z,-0.70
2017-12-10T20:00:25.281Z,-0.70
2017-12-10T20:02:52.788Z,-0.69
2017-12-10T20:05:20.326Z,-0.75
2017-12-10T20:07:47.912Z,-0.77
2017-12-10T20:10:15.400Z,-0.77
2017-12-10T20:12:42.979Z,-0.77
2017-12-10T20:15:10.458Z,-0.75
2017-12-10T20:17:37.943Z,-0.78
2017-12-10T20:20:05.451Z,-0.72
2017-12-10T20:22:32.960Z,-0.75
2017-12-10T20:25:00.435Z,-0.73
2017-12-10T20:27:28.077Z,-0.82
2017-12-10T20:29:55.638Z,-0.84
2017-12-10T20:32:23.198Z,-0.80
2017-12-10T20:34:50.707Z,-0.90
2017-12-10T20:37:18.317Z,-0.89
2017-12-10T20:39:45.800Z,-0.81
2017-12-10T20:42:13.306Z,-0.83
2017-12-10T20:44:40.788Z,-0.85
2017-12-10T20:47:08.331Z,-0.89
2017-12-10T20:49:35.892Z,-0.89
2017-12-10T20:52:03.387Z,-0.91
2017-12-10T20:54:31.026Z,-0.90
2017-12-10T20:56:58.538Z,-0.94
2017-12-10T20:59:26.063Z,-0.86
2017-12-10T21:01:53.546Z,-0.79
2017-12-10T21:04:21.061Z,-0.86
2017-12-10T21:06:48.587Z,-0.84
2017-12-10T21:09:16.123Z,-0.84
2017-12-10T21:11:43.597Z,-0.93
2017-12-10T21:14:11.166Z,-0.90
2017-12-10T21:16:38.650Z,-0.89
2017-12-10T21:19:06.122Z,-0.90
2017-12-10T21:21:33.627Z,-0.89
2017-12-10T21:24:01.124Z,-0.80
2017-12-10T21:26:28.665Z,-0.75
2017-12-10T21:28:56.238Z,-0.72
2017-12-10T21:31:23.752Z,-0.67
2017-12-10T21:33:51.244Z,-0.68
2017-12-10T21:36:18.791Z,-0.72
2017-12-10T21:38:46.315Z,-0.73
2017-12-10T21:41:13.795Z,-0.74
2017-12-10T21:43:41.315Z,-0.71
2017-12-10T21:46:08.798Z,-0.60
2017-12-10T21:48:36.281Z,-0.64
2017-12-10T21:51:03.782Z,-0.64
2017-12-10T21:53:31.324Z,-0.56
2017-12-10T21:55:58.827Z,-0.50
2017-12-10T21:58:26.310Z,-0.53
2017-12-10T22:00:53.834Z,-0.55
2017-12-10T22:03:21.314Z,-0.51
2017-12-10T22:05:48.804Z,-0.51
2017-12-10T22:08:16.324Z,-0.42
2017-12-10T22:10:43.799Z,-0.39
2017-12-10T22:13:11.276Z,-0.36
2017-12-10T22:15:38.802Z,-0.37
2017-12-10T22:18:06.408Z,-0.32
2017-12-10T22:20:33.883Z,-0.39
2017-12-10T22:23:01.379Z,-0.38
2017-12-10T22:25:28.863Z,-0.33
2017-12-10T22:27:56.415Z,-0.27
2017-12-10T22:30:23.943Z,-0.24
2017-12-10T22:32:51.434Z,-0.27
2017-12-10T22:35:18.919Z,-0.28
2017-12-10T22:37:46.454Z,-0.26
2017-12-10T22:40:13.940Z,-0.23
2017-12-10T22:42:41.418Z,-0.16
2017-12-10T22:45:09.030Z,-0.10
2017-12-10T22:47:36.520Z,-0.09
2017-12-10T22:50:04.038Z,-0.09
2017-12-10T22:52:31.563Z,0.00
2017-12-10T22:54:59.066Z,0.01
2017-12-10T22:57:26.543Z,0.01
2017-12-10T22:59:54.054Z,0.04
2017-12-10T23:02:21.627Z,0.06
2017-12-10T23:04:49.138Z,0.04
2017-12-10T23:07:16.631Z,0.07
2017-12-10T23:09:44.105Z,0.06
2017-12-10T23:12:11.619Z,0.07
2017-12-10T23:14:40.910Z,0.08
2017-12-10T23:17:08.399Z,0.03
2017-12-10T23:19:36.778Z,0.01
2017-12-10T23:22:04.328Z,-0.01
2017-12-10T23:24:31.915Z,-0.02
2017-12-10T23:26:59.475Z,-0.01
2017-12-10T23:29:26.955Z,-0.04
2017-12-10T23:31:54.441Z,0.01
2017-12-10T23:34:21.962Z,0.08
2017-12-10T23:36:49.536Z,0.17
2017-12-10T23:39:17.017Z,0.26
2017-12-10T23:41:44.539Z,0.34
2017-12-10T23:44:12.019Z,0.40
2017-12-10T23:46:39.500Z,0.43
2017-12-10T23:49:07.020Z,0.41
2017-12-10T23:51:34.508Z,0.41
2017-12-10T23:54:02.044Z,0.41
2017-12-10T23:56:29.572Z,0.42
2017-12-10T23:58:57.138Z,0.42
